createdAt,value
2023-05-01T00:02:03.937Z,12.00
2023-05-01T00:04:30.599Z,11.98
2023-05-01T00:10:00.851Z,11.96
2023-05-01T00:12:27.804Z,11.96
2023-05-01T00:14:54.300Z,11.93
2023-05-01T00:17:26.115Z,11.92
2023-05-01T00:19:54.326Z,11.92
2023-05-01T00:22:21.331Z,11.93
2023-05-01T00:31:18.255Z,11.88
2023-05-01T00:33:45.155Z,11.84
2023-05-01T00:36:11.739Z,11.84
2023-05-01T00:50:44.352Z,11.64
2023-05-01T00:53:11.668Z,11.62
2023-05-01T00:55:42.153Z,11.60
2023-05-01T00:58:10.431Z,11.60
2023-05-01T01:00:37.753Z,11.57
2023-05-01T01:03:05.466Z,11.48
2023-05-01T01:05:42.181Z,11.46
2023-05-01T01:08:24.399Z,11.43
2023-05-01T01:38:23.171Z,11.08
2023-05-01T01:40:57.815Z,11.04
2023-05-01T01:43:26.441Z,11.04
2023-05-01T01:54:44.814Z,10.94
2023-05-01T02:09:14.811Z,10.78
2023-05-01T02:17:33.474Z,10.69
2023-05-01T02:20:00.575Z,10.66
2023-05-01T02:22:27.692Z,10.64
2023-05-01T02:24:55.878Z,10.62
2023-05-01T02:27:35.181Z,10.59
2023-05-01T02:30:01.684Z,10.57
2023-05-01T02:32:28.488Z,10.55
2023-05-01T02:34:56.221Z,10.53
2023-05-01T02:37:22.760Z,10.46
2023-05-01T02:39:49.879Z,10.46
2023-05-01T02:42:17.034Z,10.43
2023-05-01T02:44:54.576Z,10.39
2023-05-01T02:50:20.185Z,10.37
2023-05-01T02:52:47.443Z,10.39
2023-05-01T02:55:36.659Z,10.38
2023-05-01T02:58:03.163Z,10.45
2023-05-01T03:00:29.897Z,10.54
2023-05-01T03:05:43.371Z,10.65
2023-05-01T03:08:11.534Z,10.71
2023-05-01T03:10:44.253Z,10.76
2023-05-01T03:13:11.512Z,10.85
2023-05-01T03:15:39.026Z,10.91
2023-05-01T03:18:06.697Z,10.98
2023-05-01T03:20:33.926Z,11.04
2023-05-01T03:31:49.669Z,11.22
2023-05-01T03:34:39.392Z,11.31
2023-05-01T03:37:14.982Z,11.35
2023-05-01T03:39:42.146Z,11.38
2023-05-01T03:45:30.270Z,11.41
2023-05-01T03:53:47.745Z,11.50
2023-05-01T03:56:14.320Z,11.49
2023-05-01T03:58:40.927Z,11.47
2023-05-01T04:01:07.680Z,11.46
2023-05-01T04:03:41.237Z,11.48
2023-05-01T04:06:08.139Z,11.47
2023-05-01T04:08:35.443Z,11.52
2023-05-01T04:11:58.121Z,11.51
2023-05-01T04:23:35.020Z,11.46
2023-05-01T04:26:02.185Z,11.46
2023-05-01T04:28:31.053Z,11.44
2023-05-01T04:30:58.125Z,11.44
2023-05-01T04:33:24.645Z,11.44
2023-05-01T04:35:51.694Z,11.41
2023-05-01T04:38:18.581Z,11.40
2023-05-01T04:40:46.917Z,11.38
2023-05-01T04:43:13.641Z,11.39
2023-05-01T04:45:41.229Z,11.39
2023-05-01T04:48:08.004Z,11.40
2023-05-01T04:50:36.583Z,11.42
2023-05-01T04:53:04.086Z,11.39
2023-05-01T04:55:32.081Z,11.41
2023-05-01T04:58:13.204Z,11.40
2023-05-01T05:00:40.128Z,11.40
2023-05-01T05:03:09.466Z,11.47
2023-05-01T05:05:36.417Z,11.45
2023-05-01T05:08:06.550Z,11.48
2023-05-01T05:10:35.897Z,11.52
2023-05-01T05:13:41.188Z,11.54
2023-05-01T05:16:12.180Z,11.58
2023-05-01T05:18:39.088Z,11.62
2023-05-01T05:21:06.620Z,11.66
2023-05-01T05:23:34.634Z,11.72
2023-05-01T05:26:03.880Z,11.76
2023-05-01T05:28:31.139Z,11.86
2023-05-01T05:30:57.790Z,11.89
2023-05-01T05:33:25.342Z,11.90
2023-05-01T05:35:52.328Z,11.92
2023-05-01T05:38:27.212Z,11.88
2023-05-01T05:40:57.717Z,11.85
2023-05-01T05:43:26.657Z,11.84
2023-05-01T05:46:01.686Z,11.84
2023-05-01T05:48:56.858Z,11.87
2023-05-01T05:51:25.069Z,11.87
2023-05-01T05:53:54.489Z,11.89
2023-05-01T05:56:22.235Z,11.91
2023-05-01T05:58:58.478Z,11.96
2023-05-01T06:01:25.459Z,12.04
2023-05-01T06:03:51.956Z,12.11
2023-05-01T06:06:18.545Z,12.22
2023-05-01T06:08:46.185Z,12.33
2023-05-01T06:11:12.748Z,12.43
2023-05-01T06:13:39.185Z,12.55
2023-05-01T06:16:07.293Z,12.68
2023-05-01T06:18:33.892Z,12.79
2023-05-01T06:21:00.429Z,12.88
2023-05-01T06:23:26.847Z,12.91
2023-05-01T06:26:13.262Z,12.97
2023-05-01T06:28:40.468Z,13.00
2023-05-01T06:31:07.243Z,13.09
2023-05-01T06:33:38.708Z,13.18
2023-05-01T06:36:18.921Z,13.25
2023-05-01T06:38:48.656Z,13.30
2023-05-01T06:41:18.416Z,13.37
2023-05-01T06:43:45.263Z,13.48
2023-05-01T06:46:12.487Z,13.58
2023-05-01T06:48:39.137Z,13.68
2023-05-01T06:51:05.547Z,13.76
2023-05-01T06:53:32.317Z,13.82
2023-05-01T06:55:58.748Z,13.82
2023-05-01T06:58:26.150Z,13.92
2023-05-01T07:00:54.083Z,14.03
2023-05-01T07:03:21.093Z,14.19
2023-05-01T07:05:47.628Z,14.33
2023-05-01T07:08:14.234Z,14.42
2023-05-01T07:10:42.092Z,14.51
2023-05-01T07:13:09.206Z,14.59
2023-05-01T07:15:35.679Z,14.66
2023-05-01T07:18:03.195Z,14.69
2023-05-01T07:20:30.503Z,14.74
2023-05-01T07:22:56.902Z,14.85
2023-05-01T07:25:23.390Z,14.91
2023-05-01T07:27:50.086Z,14.90
2023-05-01T07:30:16.575Z,14.88
2023-05-01T07:32:43.024Z,14.90
2023-05-01T07:35:09.651Z,14.97
2023-05-01T07:37:36.102Z,15.02
2023-05-01T07:40:02.687Z,15.04
2023-05-01T07:42:29.224Z,15.08
2023-05-01T07:44:55.669Z,15.06
2023-05-01T07:47:22.293Z,15.11
2023-05-01T07:49:49.590Z,15.14
2023-05-01T07:52:16.324Z,15.16
2023-05-01T07:54:42.799Z,15.16
2023-05-01T07:57:09.212Z,15.19
2023-05-01T07:59:35.828Z,15.21
2023-05-01T08:02:02.553Z,15.22
2023-05-01T08:04:29.354Z,15.29
2023-05-01T08:06:55.894Z,15.32
2023-05-01T08:09:22.333Z,15.31
2023-05-01T08:11:48.748Z,15.38
2023-05-01T08:14:17.446Z,15.46
2023-05-01T08:16:44.252Z,15.54
2023-05-01T08:19:10.871Z,15.57
2023-05-01T08:21:37.469Z,15.57
2023-05-01T08:24:03.945Z,15.61
2023-05-01T08:26:30.507Z,15.60
2023-05-01T08:28:56.905Z,15.59
2023-05-01T08:31:25.002Z,15.60
2023-05-01T08:33:51.510Z,15.63
2023-05-01T08:36:19.408Z,15.69
2023-05-01T08:38:47.054Z,15.75
2023-05-01T08:41:21.533Z,15.82
2023-05-01T08:43:48.786Z,15.89
2023-05-01T08:46:28.925Z,15.89
2023-05-01T08:48:56.664Z,15.91
2023-05-01T08:51:24.096Z,15.94
2023-05-01T08:53:52.122Z,15.96
2023-05-01T08:56:20.068Z,16.03
2023-05-01T08:58:47.615Z,16.03
2023-05-01T09:01:15.533Z,16.08
2023-05-01T09:03:44.461Z,16.09
2023-05-01T09:06:11.448Z,16.12
2023-05-01T09:08:37.997Z,16.10
2023-05-01T09:11:04.554Z,16.08
2023-05-01T09:13:31.490Z,16.10
2023-05-01T09:15:58.034Z,16.14
2023-05-01T09:18:24.544Z,16.19
2023-05-01T09:20:50.995Z,16.16
2023-05-01T09:23:17.753Z,16.20
2023-05-01T09:25:44.204Z,16.30
2023-05-01T09:28:10.640Z,16.33
2023-05-01T09:30:38.211Z,16.41
2023-05-01T09:33:13.026Z,16.43
2023-05-01T09:35:56.995Z,16.50
2023-05-01T09:38:24.888Z,16.50
2023-05-01T09:40:53.721Z,16.51
2023-05-01T09:43:27.647Z,16.56
2023-05-01T09:46:11.368Z,16.63
2023-05-01T09:48:38.676Z,16.63
2023-05-01T09:51:46.930Z,16.64
2023-05-01T09:54:20.705Z,16.58
2023-05-01T09:56:48.393Z,16.60
2023-05-01T09:59:17.550Z,16.63
2023-05-01T10:01:45.313Z,16.64
2023-05-01T10:04:12.564Z,16.63
2023-05-01T10:06:39.658Z,16.55
2023-05-01T10:09:07.761Z,16.48
2023-05-01T10:11:58.162Z,16.42
2023-05-01T10:14:26.602Z,16.46
2023-05-01T10:16:53.280Z,16.48
2023-05-01T10:19:20.272Z,16.50
2023-05-01T10:21:46.889Z,16.47
2023-05-01T10:24:15.084Z,16.46
2023-05-01T10:26:42.815Z,16.48
2023-05-01T10:29:09.408Z,16.49
2023-05-01T10:31:35.999Z,16.47
2023-05-01T10:34:02.826Z,16.44
2023-05-01T10:36:36.447Z,16.47
2023-05-01T10:39:03.261Z,16.56
2023-05-01T10:41:57.934Z,16.57
2023-05-01T10:44:26.265Z,16.57
2023-05-01T10:46:53.241Z,16.52
2023-05-01T10:49:19.960Z,16.48
2023-05-01T10:51:59.105Z,16.51
2023-05-01T10:54:26.692Z,16.54
2023-05-01T10:56:58.505Z,16.60
2023-05-01T10:59:25.630Z,16.63
2023-05-01T11:01:52.558Z,16.68
2023-05-01T11:04:18.888Z,16.70
2023-05-01T11:06:57.454Z,16.67
2023-05-01T11:09:46.567Z,16.67
2023-05-01T11:12:16.756Z,16.68
2023-05-01T11:15:03.531Z,16.74
2023-05-01T11:17:42.467Z,16.85
2023-05-01T11:20:14.034Z,16.93
2023-05-01T11:22:46.267Z,16.95
2023-05-01T11:25:23.435Z,16.95
2023-05-01T11:27:52.118Z,17.03
2023-05-01T11:30:18.741Z,17.16
2023-05-01T11:32:46.865Z,17.24
2023-05-01T11:35:22.262Z,17.36
2023-05-01T11:37:50.929Z,17.48
2023-05-01T11:40:21.236Z,17.51
2023-05-01T11:42:48.178Z,17.58
2023-05-01T11:45:14.777Z,17.72
2023-05-01T11:47:41.616Z,17.86
2023-05-01T11:50:09.198Z,17.96
2023-05-01T11:52:48.596Z,18.10
2023-05-01T11:55:18.176Z,18.15
2023-05-01T11:57:48.958Z,18.09
2023-05-01T12:00:16.839Z,18.12
2023-05-01T12:03:00.828Z,18.20
2023-05-01T12:05:29.283Z,18.22
2023-05-01T12:08:14.430Z,18.16
2023-05-01T12:10:43.234Z,18.20
2023-05-01T12:13:11.496Z,18.14
2023-05-01T12:15:40.818Z,18.20
2023-05-01T12:18:07.704Z,18.20
2023-05-01T12:20:44.547Z,18.24
2023-05-01T12:23:12.280Z,18.35
2023-05-01T12:25:39.887Z,18.43
2023-05-01T12:28:20.186Z,18.39
2023-05-01T12:30:48.994Z,18.43
2023-05-01T12:33:21.138Z,18.59
2023-05-01T12:35:49.284Z,18.70
2023-05-01T12:38:19.079Z,18.83
2023-05-01T12:40:59.403Z,18.79
2023-05-01T12:43:37.216Z,18.76
2023-05-01T12:46:04.862Z,18.82
2023-05-01T12:48:31.679Z,18.74
2023-05-01T12:50:59.396Z,18.64
2023-05-01T12:53:27.116Z,18.67
2023-05-01T12:55:55.443Z,18.67
2023-05-01T12:58:22.279Z,18.78
2023-05-01T13:00:53.509Z,18.95
2023-05-01T13:03:25.440Z,19.01
2023-05-01T13:06:00.187Z,19.01
2023-05-01T13:08:29.127Z,19.05
2023-05-01T13:10:57.275Z,19.05
2023-05-01T13:13:31.722Z,19.06
2023-05-01T13:16:16.901Z,19.10
2023-05-01T13:18:46.993Z,19.08
2023-05-01T13:21:16.197Z,18.98
2023-05-01T13:23:52.326Z,18.80
2023-05-01T13:26:25.384Z,18.74
2023-05-01T13:28:51.912Z,18.72
2023-05-01T13:31:18.318Z,18.66
2023-05-01T13:33:44.793Z,18.58
2023-05-01T13:36:24.613Z,18.53
2023-05-01T13:38:53.994Z,18.58
2023-05-01T13:41:21.863Z,18.57
2023-05-01T13:43:53.056Z,18.47
2023-05-01T13:46:24.358Z,18.49
2023-05-01T13:48:51.251Z,18.49
2023-05-01T13:51:23.505Z,18.59
2023-05-01T13:53:50.419Z,18.77
2023-05-01T13:56:17.037Z,18.86
2023-05-01T13:58:43.499Z,18.91
2023-05-01T14:01:15.645Z,19.11
2023-05-01T14:03:42.992Z,19.32
2023-05-01T14:06:20.009Z,19.43
2023-05-01T14:08:48.461Z,19.46
2023-05-01T14:11:15.276Z,19.53
2023-05-01T14:13:45.572Z,19.61
2023-05-01T14:16:20.832Z,19.59
2023-05-01T14:18:48.363Z,19.59
2023-05-01T14:21:16.091Z,19.62
2023-05-01T14:23:42.675Z,19.62
2023-05-01T14:26:09.471Z,19.67
2023-05-01T14:28:41.521Z,19.68
2023-05-01T14:31:08.318Z,19.79
2023-05-01T14:33:41.457Z,19.90
2023-05-01T14:36:07.870Z,19.90
2023-05-01T14:38:39.074Z,19.81
2023-05-01T14:41:05.891Z,19.65
2023-05-01T14:43:33.733Z,19.54
2023-05-01T14:46:00.356Z,19.41
2023-05-01T14:48:32.358Z,19.26
2023-05-01T14:50:59.416Z,19.12
2023-05-01T14:53:27.543Z,19.04
2023-05-01T14:55:54.561Z,18.90
2023-05-01T14:58:20.961Z,18.91
2023-05-01T15:00:47.374Z,18.87
2023-05-01T15:03:14.057Z,18.87
2023-05-01T15:05:41.759Z,19.02
2023-05-01T15:08:09.098Z,19.16
2023-05-01T15:10:35.959Z,19.14
2023-05-01T15:13:02.413Z,19.08
2023-05-01T15:15:29.668Z,19.05
2023-05-01T15:17:56.070Z,19.03
2023-05-01T15:20:23.097Z,19.00
2023-05-01T15:22:49.494Z,18.98
2023-05-01T15:25:16.307Z,19.02
2023-05-01T15:27:44.569Z,19.10
2023-05-01T15:30:12.497Z,19.15
2023-05-01T15:32:39.139Z,19.12
2023-05-01T15:35:05.801Z,19.17
2023-05-01T15:37:32.521Z,19.20
2023-05-01T15:39:59.394Z,19.18
2023-05-01T15:42:25.898Z,19.28
2023-05-01T15:44:52.504Z,19.46
2023-05-01T15:47:19.031Z,19.53
2023-05-01T15:49:45.747Z,19.64
2023-05-01T15:52:12.213Z,19.65
2023-05-01T15:54:38.803Z,19.74
2023-05-01T15:57:07.549Z,19.81
2023-05-01T15:59:33.947Z,19.84
2023-05-01T16:02:00.705Z,19.96
2023-05-01T16:04:27.106Z,20.10
2023-05-01T16:06:53.612Z,20.18
2023-05-01T16:09:21.808Z,20.34
2023-05-01T16:11:48.298Z,20.53
2023-05-01T16:14:15.462Z,20.66
2023-05-01T16:16:42.741Z,20.67
2023-05-01T16:19:11.340Z,20.62
2023-05-01T16:21:38.232Z,20.52
2023-05-01T16:24:05.992Z,20.44
2023-05-01T16:26:32.644Z,20.34
2023-05-01T16:29:00.943Z,20.32
2023-05-01T16:31:28.145Z,20.24
2023-05-01T16:33:54.801Z,20.17
2023-05-01T16:36:21.443Z,20.13
2023-05-01T16:38:48.054Z,20.16
2023-05-01T16:41:16.118Z,20.18
2023-05-01T16:43:42.812Z,20.15
2023-05-01T16:46:09.544Z,20.12
2023-05-01T16:48:36.385Z,20.07
2023-05-01T16:51:05.996Z,19.96
2023-05-01T16:53:32.471Z,19.87
2023-05-01T16:55:58.928Z,19.72
2023-05-01T16:58:26.411Z,19.59
2023-05-01T17:00:53.105Z,19.42
2023-05-01T17:03:19.507Z,19.25
2023-05-01T17:05:45.960Z,19.13
2023-05-01T17:08:12.418Z,19.02
2023-05-01T17:10:38.896Z,18.91
2023-05-01T17:13:07.647Z,18.83
2023-05-01T17:15:34.162Z,18.76
2023-05-01T17:18:00.865Z,18.70
2023-05-01T17:20:27.297Z,18.58
2023-05-01T17:22:53.815Z,18.45
2023-05-01T17:25:20.375Z,18.33
2023-05-01T17:27:47.023Z,18.19
2023-05-01T17:30:13.813Z,18.04
2023-05-01T17:32:40.308Z,17.92
2023-05-01T17:35:07.133Z,17.82
2023-05-01T17:37:33.633Z,17.67
2023-05-01T17:40:00.506Z,17.56
2023-05-01T17:42:27.158Z,17.45
2023-05-01T17:44:53.580Z,17.36
2023-05-01T17:47:20.117Z,17.27
2023-05-01T17:49:46.593Z,17.17
2023-05-01T17:52:12.997Z,17.03
2023-05-01T17:54:39.453Z,16.94
2023-05-01T17:57:08.124Z,16.83
2023-05-01T17:59:34.546Z,16.73
2023-05-01T18:02:01.088Z,16.58
2023-05-01T18:04:27.530Z,16.47
2023-05-01T18:06:56.243Z,16.38
2023-05-01T18:09:22.856Z,16.32
2023-05-01T18:11:49.251Z,16.26
2023-05-01T18:14:15.773Z,16.19
2023-05-01T18:16:42.282Z,16.14
2023-05-01T18:19:08.756Z,16.08
2023-05-01T18:21:35.249Z,16.03
2023-05-01T18:24:04.633Z,16.00
2023-05-01T18:26:30.948Z,15.97
2023-05-01T18:28:57.412Z,15.95
2023-05-01T18:31:23.976Z,15.91
2023-05-01T18:33:50.550Z,15.87
2023-05-01T18:36:16.972Z,15.85
2023-05-01T18:38:43.417Z,15.83
2023-05-01T18:41:09.821Z,15.82
2023-05-01T18:43:36.466Z,15.79
2023-05-01T18:46:02.985Z,15.75
2023-05-01T18:48:29.474Z,15.70
2023-05-01T18:51:07.919Z,15.67
2023-05-01T18:53:35.664Z,15.64
2023-05-01T18:56:02.121Z,15.61
2023-05-01T18:58:28.536Z,15.57
2023-05-01T19:00:55.035Z,15.53
2023-05-01T19:03:21.435Z,15.47
2023-05-01T19:05:48.143Z,15.43
2023-05-01T19:08:14.710Z,15.39
2023-05-01T19:10:42.419Z,15.30
2023-05-01T19:13:08.927Z,15.24
2023-05-01T19:15:36.264Z,15.12
2023-05-01T19:18:02.754Z,15.13
2023-05-01T19:20:29.568Z,15.13
2023-05-01T19:22:56.055Z,15.17
2023-05-01T19:25:22.653Z,15.17
2023-05-01T19:27:50.884Z,15.19
2023-05-01T19:30:17.798Z,15.22
2023-05-01T19:32:45.350Z,15.24
2023-05-01T19:35:12.974Z,15.25
2023-05-01T19:37:39.832Z,15.22
2023-05-01T19:40:06.871Z,15.13
2023-05-01T19:42:33.357Z,15.05
2023-05-01T19:45:00.168Z,14.97
2023-05-01T19:47:26.822Z,14.93
2023-05-01T19:49:53.414Z,14.90
2023-05-01T19:52:27.577Z,14.84
2023-05-01T19:54:54.189Z,14.80
2023-05-01T19:57:20.678Z,14.74
2023-05-01T19:59:47.581Z,14.71
2023-05-01T20:02:14.258Z,14.65
2023-05-01T20:04:40.955Z,14.56
2023-05-01T20:07:07.524Z,14.47
2023-05-01T20:09:34.481Z,14.41
2023-05-01T20:12:01.548Z,14.36
2023-05-01T20:14:28.197Z,14.31
2023-05-01T20:16:54.776Z,14.24
2023-05-01T20:19:23.063Z,14.14
2023-05-01T20:21:49.884Z,14.14
2023-05-01T20:24:16.813Z,14.16
2023-05-01T20:26:44.033Z,14.09
2023-05-01T20:29:11.102Z,14.07
2023-05-01T20:31:37.768Z,14.07
2023-05-01T20:34:04.807Z,14.05
2023-05-01T20:36:32.226Z,14.00
2023-05-01T20:38:59.856Z,13.98
2023-05-01T20:41:28.148Z,13.97
2023-05-01T20:43:55.553Z,13.90
2023-05-01T20:46:25.130Z,13.87
2023-05-01T20:48:52.149Z,13.88
2023-05-01T20:51:18.647Z,13.91
2023-05-01T20:53:45.490Z,13.92
2023-05-01T20:56:12.192Z,13.95
2023-05-01T20:58:38.991Z,13.90
2023-05-01T21:01:06.664Z,13.90
2023-05-01T21:03:33.506Z,13.83
2023-05-01T21:06:01.151Z,13.80
2023-05-01T21:08:28.144Z,13.79
2023-05-01T21:11:02.681Z,13.74
